Time;durP1;ratioP1;P1;durP2;ratioP2;P2;SDS_P1;SDS_P2;PMS_P1;PMS_P2;Temp;Humidity;BMP_temperature;BMP_pressure;BME280_temperature;BME280_humidity;BME280_pressure;Samples;Min_cycle;Max_cycle;Signal;HPM_P1;HPM_P2
2021/09/24 00:01:20;;;;;;;0.25;0.20;;;16.90;82.50;;;;;;5115874;28;20016;-75
2021/09/24 00:03:46;;;;;;;0.40;0.40;;;16.90;82.50;;;;;;5098896;28;20016;-75
2021/09/24 00:06:11;;;;;;;0.60;0.40;;;16.90;82.60;;;;;;5117699;28;20020;-75
2021/09/24 00:08:37;;;;;;;0.98;0.77;;;16.90;82.50;;;;;;5117407;28;20036;-75
2021/09/24 00:11:02;;;;;;;0.50;0.50;;;16.90;82.50;;;;;;5117458;28;20115;-75
2021/09/24 00:13:28;;;;;;;0.52;0.50;;;16.80;82.60;;;;;;5117370;28;20480;-75
2021/09/24 00:15:54;;;;;;;0.30;0.30;;;16.80;82.60;;;;;;5116998;28;20047;-75
2021/09/24 00:18:19;;;;;;;0.52;0.52;;;16.80;82.70;;;;;;5117413;28;20059;-75
2021/09/24 00:20:45;;;;;;;2.38;0.98;;;16.80;82.70;;;;;;5117382;28;20019;-75
2021/09/24 00:23:11;;;;;;;0.60;0.55;;;16.80;82.70;;;;;;5117119;28;20020;-75
2021/09/24 00:25:37;;;;;;;0.57;0.40;;;16.80;82.70;;;;;;5117402;28;20098;-75
2021/09/24 00:28:36;;;;;;;0.50;0.50;;;16.80;82.70;;;;;;5117161;28;20020;-76
2021/09/24 00:31:02;;;;;;;;;;;16.80;82.80;;;;;;5117004;28;20373;-75
2021/09/24 00:33:28;;;;;;;0.20;0.20;;;16.70;82.70;;;;;;5117023;28;19911;-75
2021/09/24 00:35:55;;;;;;;0.30;0.30;;;16.70;82.90;;;;;;5116998;28;20037;-75
2021/09/24 00:38:22;;;;;;;0.75;0.60;;;16.70;82.90;;;;;;5116945;28;20027;-75
2021/09/24 00:40:48;;;;;;;0.20;0.20;;;16.70;82.80;;;;;;5117093;28;20020;-75
2021/09/24 00:43:14;;;;;;;2.35;0.68;;;16.70;82.90;;;;;;5116889;28;20024;-75
2021/09/24 00:45:39;;;;;;;0.40;0.32;;;16.70;82.90;;;;;;5116488;28;20024;-75
2021/09/24 00:48:05;;;;;;;0.40;0.40;;;16.70;82.90;;;;;;5116804;28;20492;-75
2021/09/24 00:50:31;;;;;;;0.40;0.32;;;16.70;82.90;;;;;;5116600;28;20019;-75
2021/09/24 00:52:57;;;;;;;0.73;0.70;;;16.70;82.90;;;;;;5116636;28;20031;-75
2021/09/24 00:55:23;;;;;;;1.88;0.50;;;16.70;82.90;;;;;;5116714;28;20026;-75
2021/09/24 00:57:49;;;;;;;0.25;0.25;;;16.70;83.00;;;;;;5116582;28;20487;-75
2021/09/24 01:00:15;;;;;;;0.30;0.25;;;16.70;83.00;;;;;;5116128;28;20027;-75
2021/09/24 01:02:41;;;;;;;0.50;0.50;;;16.70;83.10;;;;;;5116512;28;20035;-75
2021/09/24 01:05:09;;;;;;;2.28;0.80;;;16.70;83.10;;;;;;5116532;28;20019;-75
2021/09/24 01:07:36;;;;;;;0.65;0.65;;;16.70;83.10;;;;;;5116383;28;20126;-75
2021/09/24 01:10:02;;;;;;;0.88;0.45;;;16.70;83.10;;;;;;5116413;28;20095;-75
2021/09/24 01:12:28;;;;;;;0.57;0.32;;;16.70;83.20;;;;;;5096519;28;20043;-75
2021/09/24 01:15:04;;;;;;;0.70;0.65;;;16.70;83.30;;;;;;5116094;28;20068;-76
2021/09/24 01:17:29;;;;;;;0.98;0.82;;;16.70;83.20;;;;;;5116308;28;20032;-75
2021/09/24 01:19:55;;;;;;;0.68;0.57;;;16.70;83.30;;;;;;5097970;28;20092;-76
2021/09/24 01:22:20;;;;;;;0.82;0.75;;;16.70;83.20;;;;;;5116068;28;20043;-76
2021/09/24 01:24:46;;;;;;;0.40;0.40;;;16.70;83.20;;;;;;5116304;28;20028;-75
2021/09/24 01:27:11;;;;;;;0.90;0.40;;;16.70;83.20;;;;;;5116023;28;20020;-75
2021/09/24 01:29:37;;;;;;;0.75;0.75;;;16.70;83.30;;;;;;5115582;28;20107;-75
2021/09/24 01:32:03;;;;;;;0.77;0.68;;;16.70;83.30;;;;;;5115903;28;20074;-75
2021/09/24 01:34:28;;;;;;;1.20;0.80;;;16.70;83.30;;;;;;5115890;28;20462;-75
2021/09/24 01:36:54;;;;;;;0.60;0.60;;;16.70;83.40;;;;;;5115867;28;20107;-75
2021/09/24 01:39:20;;;;;;;0.25;0.25;;;16.70;83.40;;;;;;5115784;28;20051;-75
2021/09/24 01:41:48;;;;;;;0.65;0.65;;;16.70;83.50;;;;;;5115844;28;20059;-75
2021/09/24 01:44:14;;;;;;;0.57;0.57;;;16.70;83.50;;;;;;5115300;28;20019;-75
2021/09/24 01:46:42;;;;;;;0.55;0.55;;;16.70;83.40;;;;;;5115651;28;20031;-75
2021/09/24 01:49:08;;;;;;;0.35;0.35;;;16.70;83.40;;;;;;5115742;28;20026;-76
2021/09/24 01:51:39;;;;;;;1.02;0.68;;;16.70;83.50;;;;;;5115515;28;20032;-75
2021/09/24 01:54:05;;;;;;;1.35;0.73;;;16.70;83.50;;;;;;5097251;28;20441;-75
2021/09/24 01:56:31;;;;;;;2.70;0.70;;;16.60;83.50;;;;;;5097223;28;20028;-75
2021/09/24 01:58:57;;;;;;;0.80;0.45;;;16.60;83.50;;;;;;5115092;28;20073;-75
2021/09/24 02:01:23;;;;;;;0.60;0.60;;;16.60;83.60;;;;;;5115301;28;20384;-75
2021/09/24 02:03:48;;;;;;;0.38;0.38;;;16.60;83.70;;;;;;5115272;28;20507;-75
2021/09/24 02:06:14;;;;;;;1.27;0.52;;;16.60;83.70;;;;;;5115306;28;20055;-75
2021/09/24 02:08:40;;;;;;;0.85;0.60;;;16.60;83.70;;;;;;5115201;28;20052;-75
2021/09/24 02:11:08;;;;;;;0.52;0.50;;;16.60;83.70;;;;;;5114974;28;20458;-75
2021/09/24 02:13:33;;;;;;;0.77;0.47;;;16.50;83.70;;;;;;5114751;28;20084;-75
2021/09/24 02:15:59;;;;;;;0.40;0.40;;;16.60;83.80;;;;;;5115034;28;20465;-76
2021/09/24 02:18:25;;;;;;;0.85;0.65;;;16.50;83.80;;;;;;5114984;28;20026;-75
2021/09/24 02:20:50;;;;;;;0.63;0.50;;;16.50;83.90;;;;;;5115043;28;20094;-75
2021/09/24 02:23:16;;;;;;;2.28;1.00;;;16.50;83.80;;;;;;5130397;27;20016;-75
2021/09/24 02:25:41;;;;;;;0.70;0.70;;;16.50;83.80;;;;;;5114907;28;20038;-75
2021/09/24 02:28:07;;;;;;;1.58;0.63;;;16.60;83.90;;;;;;5114382;28;20047;-75
2021/09/24 02:30:32;;;;;;;0.93;0.73;;;16.50;83.80;;;;;;5114997;28;20499;-75
2021/09/24 02:32:58;;;;;;;0.52;0.45;;;16.50;84.00;;;;;;5114639;28;20038;-75
2021/09/24 02:35:23;;;;;;;1.10;0.60;;;16.50;84.00;;;;;;5114692;28;20026;-75
2021/09/24 02:37:49;;;;;;;0.63;0.63;;;16.50;84.00;;;;;;5114849;28;20035;-75
2021/09/24 02:40:14;;;;;;;0.70;0.70;;;16.50;84.00;;;;;;5114554;28;20357;-76
2021/09/24 02:42:40;;;;;;;0.75;0.60;;;16.50;84.00;;;;;;5095962;28;20541;-76
2021/09/24 02:45:06;;;;;;;1.23;1.00;;;16.50;84.10;;;;;;5114511;28;20095;-76
2021/09/24 02:47:32;;;;;;;0.60;0.60;;;16.50;84.10;;;;;;5114336;28;20494;-75
2021/09/24 02:49:57;;;;;;;0.65;0.65;;;16.50;84.10;;;;;;5114339;28;20095;-76
2021/09/24 02:52:23;;;;;;;0.65;0.65;;;16.50;84.00;;;;;;5114312;28;20118;-76
2021/09/24 02:54:48;;;;;;;1.30;0.98;;;16.50;83.90;;;;;;5114431;28;20030;-75
2021/09/24 02:57:14;;;;;;;0.68;0.68;;;16.60;84.10;;;;;;5113971;28;20106;-76
2021/09/24 02:59:39;;;;;;;0.45;0.45;;;16.50;84.00;;;;;;5114280;28;20035;-76
2021/09/24 03:02:05;;;;;;;1.02;0.77;;;16.50;84.00;;;;;;5114123;28;20024;-75
2021/09/24 03:04:31;;;;;;;0.73;0.70;;;16.60;84.10;;;;;;5114267;28;20417;-76
2021/09/24 03:06:56;;;;;;;1.02;0.73;;;16.60;84.70;;;;;;5114139;28;20074;-76
2021/09/24 03:09:22;;;;;;;0.80;0.80;;;16.60;84.00;;;;;;5095954;28;20023;-76
2021/09/24 03:11:48;;;;;;;0.93;0.90;;;16.50;84.00;;;;;;5113595;28;20153;-75
2021/09/24 03:14:13;;;;;;;0.63;0.63;;;16.50;84.00;;;;;;5114238;28;20145;-76
2021/09/24 03:16:41;;;;;;;1.05;0.88;;;16.60;84.00;;;;;;5114032;28;20488;-75
2021/09/24 03:19:07;;;;;;;0.95;0.65;;;16.50;84.10;;;;;;5113958;28;20484;-76
2021/09/24 03:21:32;;;;;;;0.50;0.50;;;16.60;84.20;;;;;;5114039;28;20023;-76
2021/09/24 03:23:58;;;;;;;0.70;0.70;;;16.50;84.20;;;;;;5114110;28;20048;-76
2021/09/24 03:26:23;;;;;;;0.77;0.77;;;16.50;84.20;;;;;;5095150;28;20498;-75
2021/09/24 03:28:49;;;;;;;0.60;0.57;;;16.50;84.20;;;;;;5113819;28;20022;-76
2021/09/24 03:31:15;;;;;;;0.68;0.65;;;16.50;84.30;;;;;;5113708;28;20464;-76
2021/09/24 03:33:41;;;;;;;0.80;0.80;;;16.50;84.40;;;;;;5113863;28;20055;-76
2021/09/24 03:36:07;;;;;;;0.60;0.60;;;16.50;84.40;;;;;;5113118;28;20016;-75
2021/09/24 03:38:32;;;;;;;0.75;0.70;;;16.40;84.40;;;;;;5113704;28;20031;-75
2021/09/24 03:40:58;;;;;;;1.17;1.08;;;16.40;84.50;;;;;;5113302;28;20051;-75
2021/09/24 03:43:24;;;;;;;1.38;1.00;;;16.40;84.50;;;;;;5113692;28;20042;-76
2021/09/24 03:45:50;;;;;;;1.13;0.63;;;16.40;84.50;;;;;;5113770;28;20464;-76
2021/09/24 03:48:15;;;;;;;1.13;0.90;;;16.40;84.60;;;;;;5113576;28;20032;-75
2021/09/24 03:50:41;;;;;;;0.95;0.70;;;16.30;84.70;;;;;;5113903;28;20027;-74
2021/09/24 03:53:07;;;;;;;1.10;0.98;;;16.30;84.80;;;;;;5113423;28;20495;-75
2021/09/24 03:55:32;;;;;;;1.80;1.10;;;16.20;84.80;;;;;;5113197;28;20023;-75
2021/09/24 03:57:58;;;;;;;1.42;0.90;;;16.20;84.90;;;;;;5113564;28;20076;-75
2021/09/24 04:00:23;;;;;;;2.88;1.38;;;16.20;85.00;;;;;;5113513;28;20020;-75
2021/09/24 04:02:49;;;;;;;2.03;0.90;;;16.20;85.00;;;;;;5113417;28;20024;-75
2021/09/24 04:05:14;;;;;;;1.63;1.15;;;16.20;85.10;;;;;;5113456;28;20016;-76
2021/09/24 04:07:40;;;;;;;1.48;1.17;;;16.20;85.00;;;;;;5113317;28;20119;-76
2021/09/24 04:10:06;;;;;;;1.45;1.35;;;16.20;85.10;;;;;;5094741;28;20472;-76
2021/09/24 04:12:31;;;;;;;1.60;1.40;;;16.20;85.00;;;;;;5113223;28;20533;-77
2021/09/24 04:14:57;;;;;;;2.70;1.70;;;16.20;85.10;;;;;;5113429;28;20024;-77
2021/09/24 04:17:22;;;;;;;1.25;1.15;;;16.20;85.10;;;;;;5113239;28;20031;-74
2021/09/24 04:19:48;;;;;;;4.03;1.60;;;16.20;85.10;;;;;;5095126;28;20020;-74
2021/09/24 04:22:14;;;;;;;2.35;2.13;;;16.10;85.00;;;;;;5113304;28;20361;-74
2021/09/24 04:24:40;;;;;;;3.03;2.15;;;16.20;85.20;;;;;;5112812;28;20472;-74
2021/09/24 04:27:05;;;;;;;4.70;2.50;;;16.10;85.30;;;;;;5113337;28;20026;-74
2021/09/24 04:29:31;;;;;;;4.00;2.47;;;16.10;85.30;;;;;;5113144;28;20024;-74
2021/09/24 04:31:57;;;;;;;3.90;2.28;;;16.10;85.40;;;;;;5113088;28;20032;-74
2021/09/24 04:34:22;;;;;;;3.33;1.95;;;16.10;85.50;;;;;;5113254;28;20472;-74
2021/09/24 04:36:48;;;;;;;4.80;2.10;;;16.10;85.40;;;;;;5113271;28;20031;-74
2021/09/24 04:39:13;;;;;;;3.03;2.15;;;16.10;85.40;;;;;;5112660;28;20024;-76
2021/09/24 04:41:39;;;;;;;2.70;1.90;;;16.10;85.50;;;;;;5113095;28;20080;-77
2021/09/24 04:44:04;;;;;;;3.03;2.05;;;16.10;85.50;;;;;;5113175;28;20020;-76
2021/09/24 04:46:30;;;;;;;4.50;2.83;;;16.10;85.60;;;;;;5113810;28;20028;-76
2021/09/24 04:48:57;;;;;;;3.78;2.60;;;16.10;85.60;;;;;;5116910;28;20012;-76
2021/09/24 04:51:23;;;;;;;3.63;2.30;;;16.10;85.70;;;;;;5116386;28;20042;-76
2021/09/24 04:53:48;;;;;;;4.85;2.70;;;16.10;85.80;;;;;;5116810;28;20024;-75
2021/09/24 04:56:14;;;;;;;4.35;2.35;;;16.10;85.80;;;;;;5116606;28;20030;-75
2021/09/24 04:58:40;;;;;;;4.13;2.50;;;16.10;85.90;;;;;;5116622;28;20036;-75
2021/09/24 05:01:05;;;;;;;4.30;2.95;;;16.10;85.90;;;;;;5116570;28;20042;-75
2021/09/24 05:03:31;;;;;;;2.95;2.13;;;16.10;85.90;;;;;;5116369;28;20092;-77
2021/09/24 05:05:56;;;;;;;4.63;2.80;;;16.00;85.90;;;;;;5116105;28;20491;-77
2021/09/24 05:08:21;;;;;;;5.60;3.40;;;16.10;86.10;;;;;;5116338;28;20167;-77
2021/09/24 05:10:47;;;;;;;4.47;2.85;;;16.10;86.10;;;;;;5116426;28;20102;-77
2021/09/24 05:13:13;;;;;;;4.55;3.25;;;16.10;86.00;;;;;;5116361;28;20110;-75
2021/09/24 05:15:38;;;;;;;4.30;2.63;;;16.10;86.00;;;;;;5116219;28;20425;-73
2021/09/24 05:18:06;;;;;;;5.45;2.83;;;16.20;86.00;;;;;;5116264;28;20077;-75
2021/09/24 05:20:32;;;;;;;3.45;2.08;;;16.20;85.90;;;;;;5115807;28;20050;-74
2021/09/24 05:22:57;;;;;;;5.18;3.40;;;16.20;85.90;;;;;;5116174;28;20059;-76
2021/09/24 05:25:23;;;;;;;5.80;3.40;;;16.30;85.90;;;;;;5116149;28;20038;-74
2021/09/24 05:27:49;;;;;;;6.10;3.88;;;16.30;85.90;;;;;;5116123;28;20098;-75
2021/09/24 05:30:15;;;;;;;4.13;3.10;;;16.30;85.90;;;;;;5115985;28;20099;-76
2021/09/24 05:32:41;;;;;;;6.63;3.33;;;16.30;85.90;;;;;;5115852;28;20039;-75
2021/09/24 05:35:07;;;;;;;4.68;3.45;;;16.40;86.00;;;;;;5115575;28;20027;-75
2021/09/24 05:37:33;;;;;;;3.30;2.10;;;16.40;86.10;;;;;;5115834;28;20024;-75
2021/09/24 05:39:59;;;;;;;4.03;2.67;;;16.40;86.00;;;;;;5097571;28;20019;-74
2021/09/24 05:42:24;;;;;;;3.47;2.13;;;16.40;86.00;;;;;;5115837;28;20031;-76
2021/09/24 05:44:50;;;;;;;5.50;3.03;;;16.40;86.10;;;;;;5115529;28;20380;-75
2021/09/24 05:47:15;;;;;;;4.45;2.60;;;16.40;86.20;;;;;;5115586;28;20059;-75
2021/09/24 05:49:41;;;;;;;3.30;2.15;;;16.50;86.20;;;;;;5096944;28;20055;-76
2021/09/24 05:52:06;;;;;;;4.03;2.63;;;16.40;86.20;;;;;;5097301;28;20039;-76
2021/09/24 05:54:32;;;;;;;5.30;3.38;;;16.50;86.20;;;;;;5115528;28;20429;-75
2021/09/24 05:56:58;;;;;;;3.75;2.70;;;16.50;86.20;;;;;;5115498;28;20027;-75
2021/09/24 05:59:23;;;;;;;4.90;3.25;;;16.50;86.20;;;;;;5114623;28;20034;-75
2021/09/24 06:01:50;;;;;;;5.47;3.30;;;16.60;86.30;;;;;;5115366;28;20020;-76
2021/09/24 06:04:16;;;;;;;5.45;2.88;;;16.60;86.30;;;;;;5114914;28;20028;-77
2021/09/24 06:06:42;;;;;;;4.32;2.88;;;16.70;86.30;;;;;;5115066;28;20023;-75
2021/09/24 06:09:08;;;;;;;6.93;3.72;;;16.70;86.30;;;;;;5115236;28;20016;-77
2021/09/24 06:11:34;;;;;;;5.65;3.13;;;16.70;86.30;;;;;;5115136;28;20035;-77
2021/09/24 06:13:59;;;;;;;6.80;3.42;;;16.80;86.20;;;;;;5114954;28;20058;-75
2021/09/24 06:16:25;;;;;;;9.93;4.60;;;16.80;86.30;;;;;;5115135;28;20024;-76
2021/09/24 06:18:51;;;;;;;8.23;4.63;;;16.80;86.30;;;;;;5114583;28;20388;-76
2021/09/24 06:21:18;;;;;;;6.40;3.30;;;16.80;86.40;;;;;;5114829;28;20015;-76
2021/09/24 06:23:44;;;;;;;5.07;3.72;;;16.90;86.50;;;;;;5096767;28;20043;-76
2021/09/24 06:26:10;;;;;;;9.38;4.35;;;16.90;86.60;;;;;;5114988;28;20032;-75
2021/09/24 06:28:36;;;;;;;6.10;3.55;;;16.90;86.70;;;;;;5114759;28;20371;-76
2021/09/24 06:31:01;;;;;;;6.53;3.90;;;16.90;86.80;;;;;;5130699;27;20035;-76
2021/09/24 06:33:27;;;;;;;6.53;4.10;;;16.90;87.50;;;;;;5114144;28;20059;-76
2021/09/24 06:35:53;;;;;;;5.72;3.03;;;16.90;86.90;;;;;;5114769;28;20538;-76
2021/09/24 06:38:18;;;;;;;9.77;5.97;;;16.90;87.00;;;;;;5114610;28;20019;-76
2021/09/24 06:40:44;;;;;;;6.57;4.18;;;16.90;87.20;;;;;;5114650;28;20031;-76
2021/09/24 06:43:10;;;;;;;4.72;3.38;;;16.90;87.20;;;;;;5114614;28;20036;-76
2021/09/24 06:45:36;;;;;;;5.18;3.50;;;16.90;87.30;;;;;;5114769;28;20016;-74
2021/09/24 06:48:02;;;;;;;5.95;3.45;;;16.90;87.20;;;;;;5113995;28;20058;-77
2021/09/24 06:50:28;;;;;;;5.10;3.47;;;17.00;87.20;;;;;;5114423;28;20030;-76
2021/09/24 06:52:53;;;;;;;4.70;2.88;;;17.00;87.20;;;;;;5114210;28;20032;-74
2021/09/24 06:55:22;;;;;;;7.72;4.60;;;17.00;87.30;;;;;;5114263;28;20026;-77
2021/09/24 06:57:48;;;;;;;5.70;2.80;;;17.00;87.30;;;;;;5114143;28;20035;-76
2021/09/24 07:00:14;;;;;;;6.22;3.63;;;17.00;87.30;;;;;;5114156;28;20023;-77
2021/09/24 07:02:40;;;;;;;6.07;3.60;;;17.00;87.30;;;;;;5113738;28;20031;-77
2021/09/24 07:05:06;;;;;;;5.55;3.45;;;17.00;87.40;;;;;;5114141;28;20020;-77
2021/09/24 07:07:31;;;;;;;5.57;3.03;;;17.00;87.40;;;;;;5113988;28;20051;-76
2021/09/24 07:09:58;;;;;;;6.25;3.55;;;17.00;87.50;;;;;;5114002;28;20023;-77
2021/09/24 07:12:24;;;;;;;4.88;3.47;;;17.10;87.50;;;;;;5114012;28;20101;-76
2021/09/24 07:14:50;;;;;;;5.55;3.25;;;17.00;87.50;;;;;;5114006;28;20027;-78
2021/09/24 07:17:15;;;;;;;5.50;2.78;;;17.10;87.50;;;;;;5113551;28;20064;-78
2021/09/24 07:19:41;;;;;;;7.53;4.35;;;17.10;87.40;;;;;;5113994;28;20031;-76
2021/09/24 07:22:08;;;;;;;4.40;3.13;;;17.10;87.40;;;;;;5113915;28;20020;-79
2021/09/24 07:24:34;;;;;;;5.97;4.05;;;17.10;87.40;;;;;;5113860;28;20058;-77
2021/09/24 07:27:00;;;;;;;5.43;3.22;;;17.20;87.50;;;;;;5113802;28;20052;-76
2021/09/24 07:29:25;;;;;;;5.70;3.67;;;17.20;87.40;;;;;;5113998;28;20023;-80
2021/09/24 07:31:51;;;;;;;5.00;3.22;;;17.20;87.40;;;;;;5113290;28;20118;-79
2021/09/24 07:34:16;;;;;;;5.60;3.22;;;17.20;87.40;;;;;;5113668;28;20020;-78
2021/09/24 07:36:42;;;;;;;5.03;3.00;;;17.20;87.40;;;;;;5095470;28;20020;-78
2021/09/24 07:39:07;;;;;;;8.00;4.82;;;17.30;87.40;;;;;;5113803;28;20093;-77
2021/09/24 07:41:33;;;;;;;7.20;4.03;;;17.30;87.40;;;;;;5113572;28;20023;-76
2021/09/24 07:43:59;;;;;;;5.25;3.88;;;17.30;87.40;;;;;;5113653;28;20484;-76
2021/09/24 07:46:25;;;;;;;5.47;4.18;;;17.30;87.40;;;;;;5113375;28;20020;-76
2021/09/24 07:48:51;;;;;;;7.20;4.60;;;17.30;87.30;;;;;;5113627;28;20027;-77
2021/09/24 07:51:17;;;;;;;6.53;4.00;;;17.40;87.30;;;;;;5113515;28;20028;-76
2021/09/24 07:53:43;;;;;;;5.90;3.90;;;17.40;87.30;;;;;;5113648;28;20031;-77
2021/09/24 07:56:09;;;;;;;5.60;3.90;;;17.40;87.30;;;;;;5113626;28;20016;-79
2021/09/24 07:58:38;;;;;;;6.32;2.97;;;17.40;87.30;;;;;;5113467;28;20481;-79
2021/09/24 08:01:04;;;;;;;5.32;3.67;;;17.40;87.40;;;;;;5113124;28;20026;-79
2021/09/24 08:03:29;;;;;;;5.65;4.03;;;17.40;87.40;;;;;;5113350;28;20023;-77
2021/09/24 08:05:55;;;;;;;7.30;4.53;;;17.40;87.30;;;;;;5113644;28;20020;-79
2021/09/24 08:08:20;;;;;;;5.65;3.67;;;17.50;87.30;;;;;;5113166;28;20052;-79
2021/09/24 08:10:46;;;;;;;6.18;3.40;;;17.50;87.20;;;;;;5113430;28;20106;-78
2021/09/24 08:13:12;;;;;;;6.22;3.30;;;17.50;87.20;;;;;;5113325;28;20035;-79
2021/09/24 08:15:42;;;;;;;6.82;3.75;;;17.60;87.20;;;;;;5113015;28;20031;-80
2021/09/24 08:18:12;;;;;;;6.53;3.97;;;17.60;87.20;;;;;;5113724;28;20153;-83
2021/09/24 08:20:38;;;;;;;6.00;4.20;;;17.60;87.20;;;;;;5113645;28;20102;-85
2021/09/24 08:23:04;;;;;;;4.60;3.50;;;17.70;87.20;;;;;;5116714;28;20142;-82
2021/09/24 08:25:29;;;;;;;6.97;3.10;;;17.70;87.10;;;;;;5117552;28;20015;-83
2021/09/24 08:27:55;;;;;;;6.47;3.65;;;17.80;87.10;;;;;;5117407;28;20508;-83
2021/09/24 08:30:23;;;;;;;6.00;3.83;;;17.80;87.10;;;;;;5116868;28;20425;-83
2021/09/24 08:32:50;;;;;;;5.03;3.22;;;17.80;87.10;;;;;;5117284;28;20038;-83
2021/09/24 08:35:16;;;;;;;5.47;3.75;;;17.80;87.00;;;;;;5117229;28;20020;-83
2021/09/24 08:37:45;;;;;;;7.47;5.05;;;17.80;87.00;;;;;;5117121;28;20468;-83
2021/09/24 08:40:11;;;;;;;8.00;4.30;;;17.80;87.10;;;;;;5117105;28;20099;-84
2021/09/24 08:42:41;;;;;;;7.63;4.50;;;17.80;87.10;;;;;;5117060;28;20480;-83
2021/09/24 08:45:28;;;;;;;8.20;5.00;;;17.80;87.20;;;;;;5116647;28;20027;-82
2021/09/24 08:47:55;;;;;;;6.38;4.18;;;17.80;87.30;;;;;;5117062;28;20027;-83
2021/09/24 08:50:22;;;;;;;6.55;4.30;;;17.80;87.30;;;;;;5116975;28;20062;-83
2021/09/24 08:52:48;;;;;;;6.47;4.05;;;17.80;87.30;;;;;;5116563;28;20028;-82
2021/09/24 08:55:13;;;;;;;6.40;4.20;;;17.90;87.30;;;;;;5116663;28;20030;-82
2021/09/24 08:57:42;;;;;;;5.80;4.15;;;18.00;87.20;;;;;;5116954;28;20077;-82
2021/09/24 09:00:09;;;;;;;7.03;3.58;;;18.00;87.10;;;;;;5116392;28;20077;-82
2021/09/24 09:02:55;;;;;;;6.88;4.40;;;18.10;86.90;;;;;;5116642;28;20484;-81
2021/09/24 09:05:21;;;;;;;6.68;3.45;;;18.20;86.80;;;;;;5116570;28;20043;-79
2021/09/24 09:07:48;;;;;;;8.10;5.07;;;18.30;86.70;;;;;;5098279;28;20060;-80
2021/09/24 09:10:14;;;;;;;6.20;4.75;;;18.40;86.50;;;;;;5116433;28;20024;-79
2021/09/24 09:12:40;;;;;;;7.18;4.70;;;18.40;86.40;;;;;;5115644;28;20040;-76
2021/09/24 09:15:09;;;;;;;7.55;5.07;;;18.50;86.60;;;;;;5116467;28;20015;-77
2021/09/24 09:17:39;;;;;;;8.63;4.45;;;18.50;86.60;;;;;;5116271;28;20103;-78
2021/09/24 09:20:16;;;;;;;7.50;5.07;;;18.60;86.60;;;;;;5116131;28;20031;-77
2021/09/24 09:22:44;;;;;;;7.43;4.53;;;18.60;86.50;;;;;;5116181;28;20028;-77
2021/09/24 09:25:23;;;;;;;6.20;3.92;;;18.70;86.50;;;;;;5116108;28;20024;-78
2021/09/24 09:27:49;;;;;;;7.85;4.82;;;18.70;86.40;;;;;;5115643;28;20024;-77
2021/09/24 09:30:16;;;;;;;6.32;4.03;;;18.80;86.30;;;;;;5116092;28;20012;-79
2021/09/24 09:33:00;;;;;;;8.00;4.80;;;18.80;86.20;;;;;;5115028;28;20032;-79
2021/09/24 09:35:27;;;;;;;5.13;3.53;;;19.00;86.20;;;;;;5097669;28;20030;-78
2021/09/24 09:37:53;;;;;;;7.90;5.18;;;18.90;86.10;;;;;;5115957;28;20019;-76
2021/09/24 09:40:21;;;;;;;6.68;4.60;;;19.00;86.20;;;;;;5115808;28;20016;-76
2021/09/24 09:42:48;;;;;;;5.60;4.13;;;18.90;86.20;;;;;;5115425;28;20047;-78
2021/09/24 09:45:18;;;;;;;6.70;4.72;;;19.00;86.30;;;;;;5115546;28;20056;-77
2021/09/24 09:47:44;;;;;;;;;;;19.00;86.20;;;;;;5115950;28;20026;-76
2021/09/24 09:50:13;;;;;;;6.88;4.45;;;19.00;86.20;;;;;;5115681;28;20387;-78
2021/09/24 09:53:10;;;;;;;6.85;3.50;;;19.00;86.20;;;;;;5115472;28;20118;-78
2021/09/24 09:55:42;;;;;;;4.88;3.00;;;19.10;86.00;;;;;;5115671;28;20038;-78
2021/09/24 09:58:10;;;;;;;8.05;3.50;;;19.10;86.60;;;;;;5114897;28;20023;-76
2021/09/24 10:00:52;;;;;;;6.18;3.35;;;19.30;85.90;;;;;;5115334;28;20028;-78
2021/09/24 10:03:25;;;;;;;5.78;3.25;;;19.30;85.70;;;;;;5115661;28;20019;-79
2021/09/24 10:05:51;;;;;;;4.63;3.35;;;19.40;85.70;;;;;;5109283;28;20048;-78
2021/09/24 10:08:21;;;;;;;5.10;3.28;;;19.40;85.60;;;;;;5092187;28;20197;-79
2021/09/24 10:10:54;;;;;;;4.22;2.85;;;19.50;85.40;;;;;;5091390;28;20380;-78
2021/09/24 10:13:20;;;;;;;5.97;3.50;;;19.70;85.30;;;;;;5091872;28;20105;-78
2021/09/24 10:15:45;;;;;;;5.15;3.25;;;19.70;85.10;;;;;;5091858;28;20023;-79
2021/09/24 10:18:11;;;;;;;5.53;4.47;;;19.70;85.10;;;;;;5091723;28;20032;-78
2021/09/24 10:20:37;;;;;;;5.32;3.25;;;19.70;85.20;;;;;;5091877;28;20472;-78
2021/09/24 10:23:03;;;;;;;4.57;2.53;;;19.70;85.30;;;;;;5091907;28;20028;-81
2021/09/24 10:25:28;;;;;;;4.65;2.85;;;19.80;85.30;;;;;;5091414;28;20501;-83
2021/09/24 10:27:55;;;;;;;3.60;2.60;;;19.90;84.90;;;;;;5091726;28;20051;-87
2021/09/24 10:30:25;;;;;;;5.28;3.20;;;20.00;84.90;;;;;;5091756;28;20024;-83
2021/09/24 10:33:00;;;;;;;3.42;2.47;;;20.20;84.70;;;;;;5091698;28;20047;-85
2021/09/24 10:35:45;;;;;;;5.07;3.20;;;20.30;84.30;;;;;;5091915;28;20035;-82
2021/09/24 10:38:11;;;;;;;4.20;2.95;;;20.40;84.10;;;;;;5091499;28;20106;-81
2021/09/24 10:40:51;;;;;;;3.67;2.65;;;20.50;84.10;;;;;;5089721;28;20111;-83
2021/09/24 10:43:16;;;;;;;4.20;2.50;;;20.60;83.90;;;;;;5091118;28;20027;-82
2021/09/24 10:45:43;;;;;;;3.08;2.53;;;20.70;83.70;;;;;;5091003;28;20477;-81
2021/09/24 10:48:24;;;;;;;3.58;2.50;;;20.70;83.70;;;;;;5091588;28;20385;-82
2021/09/24 10:50:55;;;;;;;3.45;2.70;;;20.70;83.70;;;;;;5091376;28;20032;-83
2021/09/24 10:53:39;;;;;;;4.75;3.35;;;20.70;83.80;;;;;;5090832;28;20035;-81
2021/09/24 10:56:04;;;;;;;4.82;3.33;;;20.80;83.40;;;;;;5090815;28;20051;-82
2021/09/24 10:58:29;;;;;;;3.45;2.58;;;20.70;83.40;;;;;;5091412;28;20458;-81
2021/09/24 11:01:05;;;;;;;3.72;2.67;;;20.70;83.70;;;;;;5072967;28;20051;-81
2021/09/24 11:03:31;;;;;;;3.35;2.67;;;20.70;83.80;;;;;;5091537;28;20111;-80
2021/09/24 11:06:02;;;;;;;4.22;3.15;;;20.70;83.60;;;;;;5091497;28;20032;-81
2021/09/24 11:08:37;;;;;;;4.03;2.72;;;20.80;83.30;;;;;;5072381;28;20461;-82
2021/09/24 11:11:22;;;;;;;3.38;2.92;;;20.80;83.20;;;;;;5090983;28;20038;-81
2021/09/24 11:13:52;;;;;;;2.55;2.05;;;20.80;83.40;;;;;;5090889;28;20489;-81
2021/09/24 11:16:43;;;;;;;2.17;1.77;;;20.80;83.40;;;;;;5072623;28;20538;-81
2021/09/24 11:19:29;;;;;;;3.40;2.70;;;20.90;83.20;;;;;;5072460;28;20027;-78
2021/09/24 11:22:05;;;;;;;3.10;2.58;;;20.90;83.00;;;;;;5091035;28;20027;-77
2021/09/24 11:24:37;;;;;;;3.33;2.58;;;20.90;83.00;;;;;;5090335;28;20514;-78
2021/09/24 11:27:09;;;;;;;3.95;2.70;;;20.90;83.00;;;;;;5090667;28;20475;-78
2021/09/24 11:30:02;;;;;;;3.42;2.33;;;20.90;83.00;;;;;;5072257;28;20435;-77
2021/09/24 11:32:38;;;;;;;2.75;1.92;;;21.00;82.80;;;;;;5098586;28;20114;-78
2021/09/24 11:35:09;;;;;;;3.25;2.33;;;21.10;82.60;;;;;;5107593;27;20030;-82
2021/09/24 11:37:37;;;;;;;3.40;2.20;;;21.20;82.30;;;;;;5111329;28;20024;-80
2021/09/24 11:40:11;;;;;;;3.45;2.35;;;21.30;82.40;;;;;;5113750;28;20015;-80
2021/09/24 11:42:43;;;;;;;4.30;3.05;;;21.30;82.10;;;;;;5113477;28;20148;-80
2021/09/24 11:45:13;;;;;;;4.25;3.08;;;21.20;82.10;;;;;;5113787;28;20094;-81
2021/09/24 11:47:41;;;;;;;4.03;2.72;;;21.10;82.30;;;;;;5113820;28;20411;-79
2021/09/24 11:50:09;;;;;;;4.03;2.80;;;21.10;82.50;;;;;;5113464;28;20012;-78
2021/09/24 11:52:44;;;;;;;2.53;1.98;;;21.20;82.40;;;;;;5113347;28;20031;-80
2021/09/24 11:55:29;;;;;;;3.58;2.20;;;21.40;82.00;;;;;;5113707;28;20031;-79
2021/09/24 11:58:09;;;;;;;3.55;2.88;;;21.50;81.70;;;;;;5116952;28;20019;-78
2021/09/24 12:00:48;;;;;;;3.35;2.80;;;21.50;81.70;;;;;;5117895;28;20023;-79
2021/09/24 12:03:19;;;;;;;4.65;3.42;;;21.40;81.60;;;;;;5117691;28;20020;-81
2021/09/24 12:06:05;;;;;;;2.97;1.92;;;21.40;81.80;;;;;;5117715;28;20384;-80
2021/09/24 12:08:40;;;;;;;3.20;2.25;;;21.50;81.80;;;;;;5117152;28;20052;-80
2021/09/24 12:11:11;;;;;;;4.43;2.65;;;21.50;81.50;;;;;;5117770;28;20028;-81
2021/09/24 12:13:42;;;;;;;7.90;4.22;;;21.70;81.30;;;;;;5117435;28;20031;-80
2021/09/24 12:16:10;;;;;;;3.53;2.75;;;21.80;81.00;;;;;;5099217;28;20375;-80
2021/09/24 12:18:46;;;;;;;2.80;2.28;;;21.80;80.90;;;;;;5117362;28;20052;-82
2021/09/24 12:21:13;;;;;;;3.22;2.50;;;22.00;80.70;;;;;;5098545;28;20058;-82
2021/09/24 12:23:39;;;;;;;3.95;2.80;;;21.90;80.70;;;;;;5099207;28;20023;-81
2021/09/24 12:26:08;;;;;;;5.18;3.05;;;21.70;80.90;;;;;;5117269;28;20072;-80
2021/09/24 12:28:35;;;;;;;5.57;3.28;;;21.60;81.10;;;;;;5117392;28;20016;-81
2021/09/24 12:31:01;;;;;;;6.30;3.08;;;21.60;81.30;;;;;;5117161;28;20491;-81
2021/09/24 12:33:27;;;;;;;5.38;4.05;;;21.50;81.40;;;;;;5117021;28;20035;-80
2021/09/24 12:36:05;;;;;;;4.30;3.08;;;21.40;81.10;;;;;;5116596;28;20016;-81
2021/09/24 12:38:33;;;;;;;4.28;2.83;;;21.30;81.40;;;;;;5117076;28;20031;-79
2021/09/24 12:41:24;;;;;;;4.30;3.33;;;21.40;81.60;;;;;;5117079;28;20020;-79
2021/09/24 12:43:50;;;;;;;4.53;3.03;;;21.70;81.10;;;;;;5113098;28;20035;-82
2021/09/24 12:46:16;;;;;;;3.22;2.53;;;21.90;80.60;;;;;;5116818;28;20020;-79
2021/09/24 12:48:46;;;;;;;2.33;1.88;;;22.00;80.30;;;;;;5116865;28;20031;-78
2021/09/24 12:51:13;;;;;;;2.92;2.40;;;21.90;80.30;;;;;;5116394;28;20020;-79